Tonasket, WA (98855)

2:31 AM PST on February 14, 2016 (GMT -0800)
Sinlahekin Wildlife Area | | Change Station
CLOSE
Current Station
Personal Weather Station
Location: Loomis, WA
Elevation: 1539 ft
Nearby Weather Stations

Elev 1539 ft 48.75 °N, 119.65 °W | Updated 28 seconds ago

Overcast
Overcast
38.8 °F
Feels Like 39 °F
N
1.0
Wind Variable Wind from SSE
Gusts 5.0 mph

Today
High -- | Low -- °F
--% Chance of Precip.
Yesterday
High -- | Low -- °F
Precip. -- in
Pressure 30.04 in
Visibility 10.0 miles
Clouds Scattered Clouds 2300 ft
Windchill 39 °F
Dew Point 35 °F
Humidity 85%
Rainfall 0.00 in
Snow Depth Not available.
7:07 AM 5:16 PM
Waxing Crescent, 40% visible
SPECI KOMK 141005Z AUTO 22007KT 10SM SCT023 03/00 A3004 RMK AO2 T00280000
Pressure 30.04 in
Visibility 10.0 miles
Clouds Scattered Clouds 2300 ft
Windchill 39 °F
Dew Point 35 °F
Humidity 85%
Rainfall 0.00 in
Snow Depth Not available.
7:07 AM 5:16 PM
Waxing Crescent, 40% visible
SPECI KOMK 141005Z AUTO 22007KT 10SM SCT023 03/00 A3004 RMK AO2 T00280000

10-Day Weather Forecast

Almanac

Astronomy

Feb. 14, 2016 Rise Set
Actual Time
Civil Twilight
Nautical Twilight
Astronomical Twilight
Moon
Length of Visible Light
Length of Day
Tomorrow will be .
, % of the Moon is Illuminated

Today's Extremes

State Highs State Lows

Community

WunderPhotos

Upload Photos

1,892,765 photos uploaded!

WunderBlog® & News

Nearby

Air Quality

  Air Quality AQ Index Pollutant
Not available.

Snow Depth

Station Depth Elevation

Earthquake Activity

City Distance Mag. Time & Date
Minimum magnitude displayed is 2.5.

Coastal Water Temperatures

Place Temperature

Stations

Nearby Weather Stations

Station Location Temp. Windchill Dew Point Humidity Wind Precip. Elev Updated Type
                   

Watches & Warnings

There are currently no watches in effect.